Oxford, NC

2:31 PM EST on January 30, 2015 (GMT -0500)
Henderson-Oxford | Change Station
CLOSE
Current Station
Airport
Location: Oxford,
Elevation: 528 ft
Nearby Weather Stations

Elev 528 ft 36.36 °N, 78.53 °W | Updated 16 minutes ago

Partly Cloudy
Partly Cloudy
46 °F
Feels Like 39 °F
N
20
Wind Variable Wind from NW
Gusts 29 mph

Today
High -- | Low -- °F
--% Chance of Precip.
Yesterday
High -- | Low -- °F
Precip. -- in
7:17 AM 5:38 PM
Waxing Gibbous, 84% visible
Pressure 30.07 in
Visibility 10.0 miles
Clouds Mostly Cloudy 7000 ft
Mostly Cloudy 8000 ft
Windchill 39 °F
Dew Point 13 °F
Humidity 27%
Rainfall 0.00 in
Snow Depth Not available.
UV 2 out of 12
Pollen 3.10 out of 12
Air Quality Not available.
Flu Activity Not available.
METAR KHNZ 301915Z AUTO 32017G25KT 10SM BKN070 BKN080 08/M10 A3007 RMK AO2 T00791104

More Conditions Fewer Conditions

Pressure 30.07 in
Visibility 10.0 miles
Clouds Mostly Cloudy 7000 ft
Mostly Cloudy 8000 ft
Windchill 39 °F
Dew Point 13 °F
Humidity 27%
Rainfall 0.00 in
Snow Depth Not available.
UV 2 out of 12
Pollen 3.10 out of 12
Air Quality Not available.
Flu Activity Not available.
METAR KHNZ 301915Z AUTO 32017G25KT 10SM BKN070 BKN080 08/M10 A3007 RMK AO2 T00791104

More Conditions Fewer Conditions

10-Day Weather Forecast

Almanac

Astronomy

Jan. 30, 2015 Rise Set
Actual Time
Civil Twilight
Nautical Twilight
Astronomical Twilight
Moon
Length of Visible Light
Length of Day
Tomorrow will be .
, % of the Moon is Illuminated

Today's Extremes

State Highs State Lows

Community

WunderPhotos

Upload Photos

1,791,876 photos uploaded!

WunderBlogs® & News

Nearby

Air Quality

  Air Quality AQ Index Pollutant
Not available.

Snow Depth

Station Depth Elevation

Earthquake Activity

City Distance Mag. Time & Date
Minimum magnitude displayed is 2.5.

Coastal Water Temperatures

Place Temperature

Nearby Weather Stations